Time,TemperatureF,DewpointF,PressureIn,WindDirection,WindDirectionDegrees,WindSpeedMPH,WindSpeedGustMPH,Humidity,HourlyPrecipIn,Conditions,Clouds,dailyrainin,SoftwareType,DateUTC
2013-02-18 00:02:00,43.5,41.9,29.96,WSW,250,0.0,4.0,94,0.00,,,0.00,meteohub,2013-02-18 08:02:00,
2013-02-18 00:07:00,43.5,41.9,29.96,WSW,250,3.0,4.0,94,0.00,,,0.00,meteohub,2013-02-18 08:07:00,
2013-02-18 00:12:00,43.5,41.9,29.96,WSW,250,3.0,4.0,94,0.00,,,0.00,meteohub,2013-02-18 08:12:00,
2013-02-18 00:17:00,43.5,41.9,29.96,WSW,250,2.0,4.0,94,0.00,,,0.00,meteohub,2013-02-18 08:17:00,
2013-02-18 00:22:00,43.5,41.9,29.96,WSW,250,2.0,4.0,94,0.00,,,0.00,meteohub,2013-02-18 08:22:00,
2013-02-18 00:27:00,43.7,42.1,29.96,WSW,250,3.0,4.0,94,0.00,,,0.00,meteohub,2013-02-18 08:27:00,
2013-02-18 00:32:00,43.5,41.9,29.96,WSW,250,1.0,4.0,94,0.00,,,0.00,meteohub,2013-02-18 08:32:00,
2013-02-18 00:37:00,43.3,41.7,29.96,WSW,250,2.0,4.0,94,0.00,,,0.00,meteohub,2013-02-18 08:37:00,
2013-02-18 00:42:00,43.3,41.7,29.96,WSW,250,3.0,4.0,94,0.00,,,0.00,meteohub,2013-02-18 08:42:00,
2013-02-18 00:47:00,43.3,41.7,29.96,WSW,250,2.0,3.0,94,0.00,,,0.00,meteohub,2013-02-18 08:47:00,
2013-02-18 00:52:00,43.3,41.7,29.96,WSW,250,3.0,4.0,94,0.00,,,0.00,meteohub,2013-02-18 08:52:00,
2013-02-18 00:57:00,43.2,41.5,29.96,WSW,250,5.0,5.0,94,0.00,,,0.00,meteohub,2013-02-18 08:57:00,
2013-02-18 01:02:00,43.2,41.9,29.96,WSW,250,3.0,5.0,95,0.00,,,0.00,meteohub,2013-02-18 09:02:00,
2013-02-18 01:07:00,43.2,41.9,29.96,WSW,250,4.0,5.0,95,0.00,,,0.00,meteohub,2013-02-18 09:07:00,
2013-02-18 01:12:00,43.3,42.1,29.96,WSW,250,1.0,5.0,95,0.00,,,0.00,meteohub,2013-02-18 09:12:00,
2013-02-18 01:17:00,43.3,42.1,29.96,WSW,250,2.0,4.0,95,0.00,,,0.00,meteohub,2013-02-18 09:17:00,
2013-02-18 01:27:00,43.3,42.1,29.96,WSW,250,3.0,4.0,95,0.00,,,0.00,meteohub,2013-02-18 09:27:00,
2013-02-18 01:32:00,43.5,42.3,29.96,WSW,250,1.0,4.0,95,0.00,,,0.00,meteohub,2013-02-18 09:32:00,
2013-02-18 01:37:00,43.7,42.4,29.96,WSW,250,0.0,4.0,95,0.00,,,0.00,meteohub,2013-02-18 09:37:00,
2013-02-18 01:42:00,43.7,42.4,29.96,WSW,250,0.0,4.0,95,0.00,,,0.00,meteohub,2013-02-18 09:42:00,
2013-02-18 01:47:00,43.5,41.9,29.96,WSW,250,0.0,2.0,94,0.00,,,0.00,meteohub,2013-02-18 09:47:00,
2013-02-18 01:52:00,43.7,42.4,29.96,WSW,250,0.0,2.0,95,0.00,,,0.00,meteohub,2013-02-18 09:52:00,
2013-02-18 01:57:00,43.7,42.4,29.95,WSW,250,0.0,2.0,95,0.00,,,0.00,meteohub,2013-02-18 09:57:00,
2013-02-18 02:02:00,43.7,42.1,29.95,WSW,250,1.0,2.0,94,0.00,,,0.00,meteohub,2013-02-18 10:02:00,
2013-02-18 02:07:00,43.5,41.9,29.95,WSW,250,3.0,3.0,94,0.00,,,0.00,meteohub,2013-02-18 10:07:00,
2013-02-18 02:12:00,43.3,41.7,29.95,WSW,250,0.0,3.0,94,0.00,,,0.00,meteohub,2013-02-18 10:12:00,
2013-02-18 02:17:00,43.3,41.7,29.95,WSW,250,2.0,3.0,94,0.00,,,0.00,meteohub,2013-02-18 10:17:00,
2013-02-18 02:22:00,43.3,41.7,29.95,WSW,250,2.0,3.0,94,0.00,,,0.00,meteohub,2013-02-18 10:22:00,
2013-02-18 02:27:00,43.3,41.7,29.95,WSW,250,3.0,3.0,94,0.00,,,0.00,meteohub,2013-02-18 10:27:00,
2013-02-18 02:32:00,43.2,41.5,29.95,WSW,250,3.0,4.0,94,0.00,,,0.00,meteohub,2013-02-18 10:32:00,
2013-02-18 02:37:00,43.2,41.9,29.95,WSW,250,3.0,4.0,95,0.00,,,0.00,meteohub,2013-02-18 10:37:00,
2013-02-18 02:47:00,43.3,42.1,29.94,WSW,250,2.0,4.0,95,0.00,,,0.00,meteohub,2013-02-18 10:47:00,
2013-02-18 02:52:00,43.5,42.3,29.94,WSW,250,0.0,3.0,95,0.00,,,0.00,meteohub,2013-02-18 10:52:00,
2013-02-18 02:57:00,43.3,42.1,29.94,WSW,250,0.0,3.0,95,0.00,,,0.00,meteohub,2013-02-18 10:57:00,
2013-02-18 03:02:00,43.3,42.1,29.94,WSW,250,0.0,2.0,95,0.00,,,0.00,meteohub,2013-02-18 11:02:00,
2013-02-18 03:07:00,43.3,41.7,29.94,WSW,250,3.0,3.0,94,0.00,,,0.00,meteohub,2013-02-18 11:07:00,
2013-02-18 03:17:00,42.6,41.0,29.93,WSW,250,4.0,5.0,94,0.00,,,0.00,meteohub,2013-02-18 11:17:00,
2013-02-18 03:22:00,42.4,40.8,29.93,WSW,250,6.0,6.0,94,0.00,,,0.00,meteohub,2013-02-18 11:22:00,
2013-02-18 03:27:00,42.3,40.6,29.93,WSW,250,4.0,6.0,94,0.00,,,0.00,meteohub,2013-02-18 11:27:00,
2013-02-18 03:32:00,42.1,40.5,29.93,WSW,250,4.0,6.0,94,0.00,,,0.00,meteohub,2013-02-18 11:32:00,
2013-02-18 03:42:00,41.5,40.3,29.93,WSW,250,5.0,6.0,95,0.00,,,0.00,meteohub,2013-02-18 11:42:00,
2013-02-18 03:47:00,41.5,40.3,29.93,WSW,250,3.0,6.0,95,0.00,,,0.00,meteohub,2013-02-18 11:47:00,
2013-02-18 03:52:00,41.5,40.3,29.93,WSW,250,4.0,5.0,95,0.00,,,0.00,meteohub,2013-02-18 11:52:00,
2013-02-18 03:57:00,41.0,39.4,29.93,WSW,250,5.0,6.0,94,0.00,,,0.00,meteohub,2013-02-18 11:57:00,
2013-02-18 04:02:00,41.0,41.0,29.93,WSW,250,5.0,7.0,100,0.00,,,0.00,meteohub,2013-02-18 12:02:00,
2013-02-18 04:07:00,40.6,39.4,29.93,WSW,250,5.0,7.0,95,0.00,,,0.00,meteohub,2013-02-18 12:07:00,
2013-02-18 04:12:00,40.5,39.2,29.93,WSW,250,4.0,6.0,95,0.00,,,0.00,meteohub,2013-02-18 12:12:00,
2013-02-18 04:17:00,40.5,39.2,29.93,WSW,250,4.0,6.0,95,0.00,,,0.00,meteohub,2013-02-18 12:17:00,
2013-02-18 04:22:00,40.6,39.4,29.93,WSW,250,3.0,6.0,95,0.00,,,0.00,meteohub,2013-02-18 12:22:00,
2013-02-18 04:27:00,40.6,39.6,29.93,WSW,250,5.0,5.0,96,0.00,,,0.00,meteohub,2013-02-18 12:27:00,
2013-02-18 04:32:00,40.5,39.2,29.93,WSW,250,4.0,5.0,95,0.00,,,0.00,meteohub,2013-02-18 12:32:00,
2013-02-18 04:37:00,40.5,39.4,29.93,WSW,250,3.0,5.0,96,0.00,,,0.00,meteohub,2013-02-18 12:37:00,
2013-02-18 04:42:00,40.8,39.7,29.94,WSW,250,3.0,5.0,96,0.00,,,0.00,meteohub,2013-02-18 12:42:00,
2013-02-18 04:47:00,40.8,39.7,29.94,WSW,250,4.0,5.0,96,0.00,,,0.00,meteohub,2013-02-18 12:47:00,
2013-02-18 04:52:00,40.8,39.7,29.94,WSW,250,3.0,5.0,96,0.00,,,0.00,meteohub,2013-02-18 12:52:00,
2013-02-18 04:57:00,40.8,39.7,29.94,WSW,250,3.0,5.0,96,0.00,,,0.00,meteohub,2013-02-18 12:57:00,
2013-02-18 05:02:00,41.2,40.1,29.94,WSW,250,0.0,5.0,96,0.00,,,0.00,meteohub,2013-02-18 13:02:00,
2013-02-18 05:07:00,41.2,40.1,29.94,WSW,250,1.0,4.0,96,0.00,,,0.00,meteohub,2013-02-18 13:07:00,
2013-02-18 05:12:00,41.2,40.1,29.94,WSW,250,2.0,3.0,96,0.00,,,0.00,meteohub,2013-02-18 13:12:00,
2013-02-18 05:17:00,41.2,40.1,29.94,WSW,250,3.0,5.0,96,0.00,,,0.00,meteohub,2013-02-18 13:17:00,
2013-02-18 05:22:00,41.2,40.1,29.94,WSW,250,4.0,5.0,96,0.00,,,0.00,meteohub,2013-02-18 13:22:00,
2013-02-18 05:27:00,41.2,40.1,29.94,WSW,250,3.0,6.0,96,0.00,,,0.00,meteohub,2013-02-18 13:27:00,
2013-02-18 05:32:00,40.6,39.6,29.94,WSW,250,3.0,6.0,96,0.00,,,0.00,meteohub,2013-02-18 13:32:00,
2013-02-18 05:37:00,40.6,39.6,29.94,WSW,250,3.0,6.0,96,0.00,,,0.00,meteohub,2013-02-18 13:37:00,
2013-02-18 05:42:00,40.6,39.6,29.94,WSW,250,1.0,5.0,96,0.00,,,0.00,meteohub,2013-02-18 13:42:00,
2013-02-18 05:47:00,40.6,39.6,29.94,WSW,250,0.0,4.0,96,0.00,,,0.00,meteohub,2013-02-18 13:47:00,
2013-02-18 05:52:00,40.6,39.6,29.94,WSW,250,1.0,4.0,96,0.00,,,0.00,meteohub,2013-02-18 13:52:00,
2013-02-18 05:57:00,40.6,39.6,29.94,WSW,250,1.0,3.0,96,0.00,,,0.00,meteohub,2013-02-18 13:57:00,
2013-02-18 06:02:00,40.6,39.6,29.94,WSW,250,2.0,3.0,96,0.00,,,0.00,meteohub,2013-02-18 14:02:00,
2013-02-18 06:07:00,40.8,39.7,29.94,WSW,250,3.0,3.0,96,0.00,,,0.00,meteohub,2013-02-18 14:07:00,
2013-02-18 06:12:00,40.8,39.7,29.94,WSW,250,0.0,4.0,96,0.00,,,0.00,meteohub,2013-02-18 14:12:00,
2013-02-18 06:17:00,40.6,39.6,29.94,WSW,250,1.0,4.0,96,0.00,,,0.00,meteohub,2013-02-18 14:17:00,
2013-02-18 06:22:00,40.6,39.6,29.94,WSW,250,0.0,4.0,96,0.00,,,0.00,meteohub,2013-02-18 14:22:00,
2013-02-18 06:27:00,40.5,39.2,29.94,WSW,250,0.0,2.0,95,0.00,,,0.00,meteohub,2013-02-18 14:27:00,
2013-02-18 06:32:00,39.7,38.5,29.94,WSW,250,2.0,4.0,95,0.00,,,0.00,meteohub,2013-02-18 14:32:00,
2013-02-18 06:42:00,39.7,38.7,29.94,WSW,250,2.0,4.0,96,0.00,,,0.00,meteohub,2013-02-18 14:42:00,
2013-02-18 06:47:00,39.9,38.8,29.94,WSW,250,2.0,4.0,96,0.00,,,0.00,meteohub,2013-02-18 14:47:00,
2013-02-18 06:52:00,39.7,38.5,29.94,WSW,250,3.0,4.0,95,0.00,,,0.00,meteohub,2013-02-18 14:52:00,
2013-02-18 06:57:00,39.7,38.7,29.94,WSW,250,3.0,4.0,96,0.00,,,0.00,meteohub,2013-02-18 14:57:00,
2013-02-18 07:02:00,39.6,38.5,29.94,WSW,250,2.0,4.0,96,0.00,,,0.00,meteohub,2013-02-18 15:02:00,
2013-02-18 07:07:00,39.6,38.5,29.94,WSW,250,1.0,4.0,96,0.00,,,0.00,meteohub,2013-02-18 15:07:00,
2013-02-18 07:12:00,39.2,37.9,29.94,WSW,250,0.0,4.0,95,0.00,,,0.00,meteohub,2013-02-18 15:12:00,
2013-02-18 07:17:00,37.9,36.3,29.94,WSW,250,0.0,3.0,94,0.00,,,0.00,meteohub,2013-02-18 15:17:00,
2013-02-18 07:22:00,37.6,36.3,29.94,WSW,250,0.0,3.0,95,0.00,,,0.00,meteohub,2013-02-18 15:22:00,
2013-02-18 07:27:00,37.9,36.9,29.94,WSW,250,0.0,1.0,96,0.00,,,0.00,meteohub,2013-02-18 15:27:00,
2013-02-18 07:32:00,38.5,37.4,29.94,WSW,250,0.0,1.0,96,0.00,,,0.00,meteohub,2013-02-18 15:32:00,
2013-02-18 07:37:00,38.8,37.8,29.94,WSW,250,0.0,1.0,96,0.00,,,0.00,meteohub,2013-02-18 15:37:00,
2013-02-18 07:42:00,39.0,37.9,29.95,WSW,250,0.0,1.0,96,0.00,,,0.00,meteohub,2013-02-18 15:42:00,
2013-02-18 07:47:00,38.1,36.9,29.95,WSW,250,0.0,2.0,95,0.00,,,0.00,meteohub,2013-02-18 15:47:00,
2013-02-18 07:52:00,37.9,36.9,29.95,WSW,250,0.0,2.0,96,0.00,,,0.00,meteohub,2013-02-18 15:52:00,
2013-02-18 07:57:00,38.1,37.0,29.95,WSW,250,0.0,2.0,96,0.00,,,0.00,meteohub,2013-02-18 15:57:00,
2013-02-18 08:02:00,38.1,37.0,29.95,WSW,250,0.0,1.0,96,0.00,,,0.00,meteohub,2013-02-18 16:02:00,
2013-02-18 08:12:00,38.7,37.6,29.96,WSW,250,0.0,1.0,96,0.00,,,0.00,meteohub,2013-02-18 16:12:00,
2013-02-18 08:17:00,39.0,37.9,29.96,WSW,250,0.0,1.0,96,0.00,,,0.00,meteohub,2013-02-18 16:17:00,
2013-02-18 08:22:00,39.4,38.7,29.96,WSW,250,0.0,1.0,97,0.00,,,0.00,meteohub,2013-02-18 16:22:00,
2013-02-18 08:27:00,39.9,39.2,29.96,WSW,250,0.0,1.0,97,0.00,,,0.00,meteohub,2013-02-18 16:27:00,
2013-02-18 08:37:00,39.7,38.7,29.96,WSW,250,0.0,2.0,96,0.00,,,0.00,meteohub,2013-02-18 16:37:00,
2013-02-18 08:42:00,40.3,39.2,29.96,WSW,250,0.0,2.0,96,0.00,,,0.00,meteohub,2013-02-18 16:42:00,
2013-02-18 08:47:00,40.6,39.9,29.96,WSW,250,0.0,1.0,97,0.00,,,0.00,meteohub,2013-02-18 16:47:00,
2013-02-18 08:52:00,40.8,40.1,29.96,WSW,250,0.0,2.0,97,0.00,,,0.00,meteohub,2013-02-18 16:52:00,
2013-02-18 09:02:00,41.4,40.6,29.96,WSW,250,0.0,2.0,97,0.00,,,0.00,meteohub,2013-02-18 17:02:00,
2013-02-18 09:07:00,41.5,40.8,29.96,WSW,250,1.0,2.0,97,0.00,,,0.00,meteohub,2013-02-18 17:07:00,
2013-02-18 09:17:00,41.7,41.0,29.97,WSW,250,2.0,5.0,97,0.00,,,0.00,meteohub,2013-02-18 17:17:00,
2013-02-18 09:22:00,41.7,40.6,29.97,WSW,250,4.0,5.0,96,0.00,,,0.00,meteohub,2013-02-18 17:22:00,
2013-02-18 09:27:00,41.5,40.5,29.98,WSW,251,6.0,7.0,96,0.00,,,0.00,meteohub,2013-02-18 17:27:00,
2013-02-18 09:32:00,41.4,40.3,29.98,WSW,251,3.0,7.0,96,0.00,,,0.00,meteohub,2013-02-18 17:32:00,
2013-02-18 09:37:00,41.5,40.5,29.98,West,264,9.0,9.0,96,0.00,,,0.00,meteohub,2013-02-18 17:37:00,
2013-02-18 09:42:00,41.4,40.3,29.98,West,276,6.0,9.0,96,0.00,,,0.00,meteohub,2013-02-18 17:42:00,
2013-02-18 09:47:00,41.2,40.1,29.98,West,276,3.0,9.0,96,0.00,,,0.00,meteohub,2013-02-18 17:47:00,
2013-02-18 09:57:00,41.4,40.6,29.97,West,276,5.0,9.0,97,0.00,,,0.00,meteohub,2013-02-18 17:57:00,
2013-02-18 10:02:00,41.5,40.5,29.97,West,276,2.0,5.0,96,0.00,,,0.00,meteohub,2013-02-18 18:02:00,
2013-02-18 10:07:00,41.5,40.5,29.97,West,276,3.0,5.0,96,0.00,,,0.00,meteohub,2013-02-18 18:07:00,
2013-02-18 10:12:00,41.7,41.0,29.98,West,276,5.0,6.0,97,0.00,,,0.00,meteohub,2013-02-18 18:12:00,
2013-02-18 10:17:00,42.1,41.4,29.98,West,275,2.0,7.0,97,0.00,,,0.00,meteohub,2013-02-18 18:17:00,
2013-02-18 10:27:00,42.3,41.5,29.98,West,275,3.0,7.0,97,0.00,,,0.00,meteohub,2013-02-18 18:27:00,
2013-02-18 10:32:00,42.4,41.7,29.98,West,275,3.0,5.0,97,0.00,,,0.00,meteohub,2013-02-18 18:32:00,
2013-02-18 10:42:00,43.5,42.8,29.97,WSW,242,2.0,9.0,97,0.00,,,0.00,meteohub,2013-02-18 18:42:00,
2013-02-18 10:47:00,43.9,43.2,29.97,WSW,242,3.0,9.0,97,0.00,,,0.00,meteohub,2013-02-18 18:47:00,
2013-02-18 10:52:00,44.2,43.5,29.97,SW,231,5.0,9.0,97,0.00,,,0.00,meteohub,2013-02-18 18:52:00,
2013-02-18 10:57:00,44.8,44.1,29.97,West,268,12.0,12.0,97,0.00,,,0.00,meteohub,2013-02-18 18:57:00,
2013-02-18 11:02:00,45.0,43.7,29.97,WSW,257,13.0,16.0,95,0.00,,,0.00,meteohub,2013-02-18 19:02:00,
2013-02-18 11:12:00,47.1,45.0,29.97,West,278,11.0,17.0,92,0.00,,,0.00,meteohub,2013-02-18 19:12:00,
2013-02-18 11:22:00,47.5,43.2,29.97,West,280,13.0,16.0,85,0.00,,,0.00,meteohub,2013-02-18 19:22:00,
2013-02-18 11:32:00,47.8,43.5,29.96,West,279,9.0,19.0,85,0.00,,,0.00,meteohub,2013-02-18 19:32:00,
2013-02-18 11:42:00,48.6,42.6,29.96,West,277,12.0,18.0,80,0.00,,,0.00,meteohub,2013-02-18 19:42:00,
2013-02-18 11:47:00,48.6,43.0,29.96,West,275,12.0,18.0,81,0.00,,,0.00,meteohub,2013-02-18 19:47:00,
2013-02-18 11:57:00,48.6,43.0,29.95,West,269,12.0,16.0,81,0.00,,,0.00,meteohub,2013-02-18 19:57:00,
2013-02-18 12:02:00,48.6,43.0,29.95,WSW,243,9.0,16.0,81,0.00,,,0.00,meteohub,2013-02-18 20:02:00,
2013-02-18 12:07:00,48.7,43.2,29.95,West,280,7.0,16.0,81,0.00,,,0.00,meteohub,2013-02-18 20:07:00,
2013-02-18 12:12:00,49.3,44.1,29.94,WSW,258,8.0,16.0,82,0.00,,,0.00,meteohub,2013-02-18 20:12:00,
2013-02-18 12:17:00,49.3,43.3,29.94,WSW,238,9.0,14.0,80,0.00,,,0.00,meteohub,2013-02-18 20:17:00,
2013-02-18 12:22:00,49.3,44.1,29.94,West,262,10.0,14.0,82,0.00,,,0.00,meteohub,2013-02-18 20:22:00,
2013-02-18 12:32:00,48.9,43.7,29.93,West,265,14.0,14.0,82,0.00,,,0.00,meteohub,2013-02-18 20:32:00,
2013-02-18 12:37:00,49.3,43.3,29.93,WSW,258,11.0,17.0,80,0.00,,,0.00,meteohub,2013-02-18 20:37:00,
2013-02-18 12:42:00,49.3,43.3,29.93,WSW,251,7.0,17.0,80,0.00,,,0.00,meteohub,2013-02-18 20:42:00,
2013-02-18 12:47:00,49.1,43.2,29.93,WSW,246,9.0,17.0,80,0.00,,,0.00,meteohub,2013-02-18 20:47:00,
2013-02-18 12:52:00,49.3,44.1,29.93,WSW,257,7.0,14.0,82,0.00,,,0.00,meteohub,2013-02-18 20:52:00,
2013-02-18 12:57:00,49.3,43.7,29.92,WSW,250,10.0,13.0,81,0.00,,,0.00,meteohub,2013-02-18 20:57:00,
2013-02-18 13:02:00,49.5,43.5,29.92,WSW,242,10.0,13.0,80,0.00,,,0.00,meteohub,2013-02-18 21:02:00,
2013-02-18 13:12:00,49.3,43.3,29.91,WSW,247,10.0,15.0,80,0.00,,,0.00,meteohub,2013-02-18 21:12:00,
2013-02-18 13:17:00,49.5,43.5,29.91,WSW,237,7.0,15.0,80,0.00,,,0.00,meteohub,2013-02-18 21:17:00,
2013-02-18 13:27:00,49.5,43.9,29.91,West,276,12.0,14.0,81,0.00,,,0.00,meteohub,2013-02-18 21:27:00,
2013-02-18 13:37:00,48.9,42.6,29.91,West,263,11.0,18.0,79,0.00,,,0.00,meteohub,2013-02-18 21:37:00,
2013-02-18 13:42:00,48.7,43.2,29.91,West,261,15.0,18.0,81,0.00,,,0.00,meteohub,2013-02-18 21:42:00,
2013-02-18 13:47:00,48.6,42.6,29.91,West,261,14.0,18.0,80,0.00,,,0.00,meteohub,2013-02-18 21:47:00,
2013-02-18 13:57:00,48.0,41.9,29.91,WSW,257,10.0,17.0,79,0.00,,,0.00,meteohub,2013-02-18 21:57:00,
2013-02-18 14:07:00,48.6,42.3,29.91,West,264,10.0,17.0,79,0.00,,,0.00,meteohub,2013-02-18 22:07:00,
2013-02-18 14:12:00,48.6,42.1,29.91,West,279,11.0,16.0,78,0.00,,,0.00,meteohub,2013-02-18 22:12:00,
2013-02-18 14:17:00,48.9,42.1,29.91,WSW,242,11.0,16.0,77,0.00,,,0.00,meteohub,2013-02-18 22:17:00,
2013-02-18 14:27:00,49.1,42.6,29.91,WSW,249,12.0,17.0,78,0.00,,,0.00,meteohub,2013-02-18 22:27:00,
2013-02-18 14:37:00,48.9,42.1,29.91,WSW,250,7.0,17.0,77,0.00,,,0.00,meteohub,2013-02-18 22:37:00,
2013-02-18 14:42:00,48.6,42.1,29.91,WSW,250,12.0,16.0,78,0.00,,,0.00,meteohub,2013-02-18 22:42:00,
2013-02-18 14:52:00,48.4,43.2,29.91,SW,231,15.0,19.0,82,0.00,,,0.00,meteohub,2013-02-18 22:52:00,
2013-02-18 14:57:00,48.4,43.2,29.91,WSW,247,12.0,19.0,82,0.00,,,0.00,meteohub,2013-02-18 22:57:00,
2013-02-18 15:07:00,47.5,42.3,29.91,West,259,12.0,20.0,82,0.00,,,0.00,meteohub,2013-02-18 23:07:00,
2013-02-18 15:12:00,47.5,42.6,29.91,WSW,255,19.0,21.0,83,0.00,,,0.00,meteohub,2013-02-18 23:12:00,
2013-02-18 15:22:00,47.1,42.6,29.91,WSW,247,21.0,23.0,84,0.00,,,0.00,meteohub,2013-02-18 23:22:00,
2013-02-18 15:27:00,47.1,42.6,29.91,WSW,253,21.0,23.0,84,0.00,,,0.00,meteohub,2013-02-18 23:27:00,
2013-02-18 15:37:00,46.9,42.4,29.91,WSW,258,13.0,25.0,84,0.00,,,0.00,meteohub,2013-02-18 23:37:00,
2013-02-18 15:42:00,46.9,42.6,29.91,West,264,11.0,25.0,85,0.00,,,0.00,meteohub,2013-02-18 23:42:00,
2013-02-18 15:47:00,46.9,42.4,29.91,West,273,13.0,25.0,84,0.00,,,0.00,meteohub,2013-02-18 23:47:00,
2013-02-18 15:52:00,46.9,42.4,29.91,West,277,17.0,25.0,84,0.00,,,0.00,meteohub,2013-02-18 23:52:00,
2013-02-18 16:02:00,47.1,42.3,29.91,West,260,18.0,27.0,83,0.00,,,0.00,meteohub,2013-02-19 00:02:00,
2013-02-18 16:07:00,46.9,42.1,29.91,WSW,255,16.0,27.0,83,0.00,,,0.00,meteohub,2013-02-19 00:07:00,
2013-02-18 16:12:00,46.8,41.9,29.91,WSW,254,18.0,27.0,83,0.00,,,0.00,meteohub,2013-02-19 00:12:00,
2013-02-18 16:22:00,46.6,42.1,29.91,WSW,252,20.0,27.0,84,0.00,,,0.00,meteohub,2013-02-19 00:22:00,
2013-02-18 16:27:00,46.6,42.1,29.90,WSW,258,19.0,26.0,84,0.00,,,0.00,meteohub,2013-02-19 00:27:00,
2013-02-18 16:37:00,46.6,42.1,29.90,West,261,20.0,26.0,84,0.00,,,0.00,meteohub,2013-02-19 00:37:00,
2013-02-18 16:42:00,46.6,42.1,29.90,WSW,249,22.0,26.0,84,0.00,,,0.00,meteohub,2013-02-19 00:42:00,
2013-02-18 16:52:00,46.0,41.2,29.90,WSW,252,15.0,28.0,83,0.00,,,0.00,meteohub,2013-02-19 00:52:00,
2013-02-18 16:57:00,46.0,41.5,29.90,WSW,245,21.0,28.0,84,0.00,,,0.00,meteohub,2013-02-19 00:57:00,
2013-02-18 17:02:00,46.0,41.5,29.90,West,259,15.0,27.0,84,0.00,,,0.00,meteohub,2013-02-19 01:02:00,
2013-02-18 17:12:00,45.9,41.4,29.90,WSW,255,23.0,28.0,84,0.00,,,0.00,meteohub,2013-02-19 01:12:00,
2013-02-18 17:17:00,45.9,41.4,29.90,West,265,21.0,28.0,84,0.00,,,0.00,meteohub,2013-02-19 01:17:00,
2013-02-18 17:22:00,45.7,41.4,29.90,West,267,16.0,28.0,85,0.00,,,0.00,meteohub,2013-02-19 01:22:00,
2013-02-18 17:27:00,45.5,41.2,29.90,West,264,17.0,28.0,85,0.00,,,0.00,meteohub,2013-02-19 01:27:00,
2013-02-18 17:32:00,45.3,41.0,29.90,West,273,20.0,26.0,85,0.00,,,0.00,meteohub,2013-02-19 01:32:00,
2013-02-18 17:42:00,45.3,40.8,29.89,WSW,248,15.0,27.0,84,0.00,,,0.00,meteohub,2013-02-19 01:42:00,
2013-02-18 17:47:00,45.3,41.0,29.89,WSW,247,19.0,27.0,85,0.00,,,0.00,meteohub,2013-02-19 01:47:00,
2013-02-18 17:57:00,45.3,41.0,29.90,WSW,254,18.0,26.0,85,0.00,,,0.00,meteohub,2013-02-19 01:57:00,
2013-02-18 18:07:00,45.3,41.0,29.90,WSW,258,23.0,26.0,85,0.00,,,0.00,meteohub,2013-02-19 02:07:00,
2013-02-18 18:17:00,45.3,41.0,29.89,West,269,15.0,28.0,85,0.00,,,0.00,meteohub,2013-02-19 02:17:00,
2013-02-18 18:27:00,45.3,41.4,29.89,WSW,257,16.0,25.0,86,0.00,,,0.00,meteohub,2013-02-19 02:27:00,
2013-02-18 18:32:00,45.3,41.4,29.89,West,263,15.0,25.0,86,0.00,,,0.00,meteohub,2013-02-19 02:32:00,
2013-02-18 18:37:00,45.3,41.4,29.89,West,264,14.0,25.0,86,0.00,,,0.00,meteohub,2013-02-19 02:37:00,
2013-02-18 18:47:00,45.3,41.0,29.89,West,261,20.0,24.0,85,0.00,,,0.00,meteohub,2013-02-19 02:47:00,
2013-02-18 18:52:00,45.3,41.0,29.89,West,263,16.0,24.0,85,0.00,,,0.00,meteohub,2013-02-19 02:52:00,
2013-02-18 18:57:00,45.3,41.0,29.89,WSW,253,17.0,24.0,85,0.00,,,0.00,meteohub,2013-02-19 02:57:00,
2013-02-18 19:02:00,45.3,41.0,29.89,West,263,16.0,24.0,85,0.00,,,0.00,meteohub,2013-02-19 03:02:00,
2013-02-18 19:12:00,45.1,41.2,29.90,West,281,14.0,23.0,86,0.00,,,0.00,meteohub,2013-02-19 03:12:00,
2013-02-18 19:22:00,45.0,41.0,29.90,West,265,12.0,24.0,86,0.00,,,0.00,meteohub,2013-02-19 03:22:00,
2013-02-18 19:27:00,45.0,41.0,29.90,WNW,296,20.0,24.0,86,0.00,,,0.00,meteohub,2013-02-19 03:27:00,
2013-02-18 19:37:00,44.8,41.2,29.90,West,269,14.0,21.0,87,0.00,,,0.00,meteohub,2013-02-19 03:37:00,
2013-02-18 19:42:00,44.8,41.2,29.90,West,264,12.0,22.0,87,0.00,,,0.00,meteohub,2013-02-19 03:42:00,
2013-02-18 19:47:00,44.6,41.0,29.90,West,260,17.0,22.0,87,0.00,,,0.00,meteohub,2013-02-19 03:47:00,
2013-02-18 19:52:00,44.4,40.8,29.90,West,261,20.0,22.0,87,0.00,,,0.00,meteohub,2013-02-19 03:52:00,
2013-02-18 19:57:00,44.4,40.8,29.91,West,267,17.0,21.0,87,0.00,,,0.00,meteohub,2013-02-19 03:57:00,
2013-02-18 20:02:00,44.1,40.5,29.91,West,268,11.0,21.0,87,0.00,,,0.00,meteohub,2013-02-19 04:02:00,
2013-02-18 20:12:00,43.9,40.3,29.91,West,263,8.0,19.0,87,0.00,,,0.00,meteohub,2013-02-19 04:12:00,
2013-02-18 20:22:00,43.5,39.9,29.91,WSW,252,11.0,19.0,87,0.00,,,0.00,meteohub,2013-02-19 04:22:00,
2013-02-18 20:27:00,43.5,40.3,29.91,West,271,9.0,17.0,88,0.00,,,0.00,meteohub,2013-02-19 04:27:00,
2013-02-18 20:32:00,43.5,40.3,29.91,West,270,12.0,17.0,88,0.00,,,0.00,meteohub,2013-02-19 04:32:00,
2013-02-18 20:37:00,43.5,39.9,29.91,West,266,12.0,17.0,87,0.00,,,0.00,meteohub,2013-02-19 04:37:00,
2013-02-18 20:42:00,43.5,39.9,29.91,West,262,11.0,17.0,87,0.00,,,0.00,meteohub,2013-02-19 04:42:00,
2013-02-18 20:47:00,43.3,39.7,29.91,West,267,10.0,14.0,87,0.00,,,0.00,meteohub,2013-02-19 04:47:00,
2013-02-18 20:52:00,43.3,39.4,29.91,West,269,9.0,16.0,86,0.00,,,0.00,meteohub,2013-02-19 04:52:00,
2013-02-18 20:57:00,43.3,39.4,29.92,West,271,10.0,16.0,86,0.00,,,0.00,meteohub,2013-02-19 04:57:00,
2013-02-18 21:02:00,43.2,39.2,29.92,West,271,11.0,16.0,86,0.00,,,0.00,meteohub,2013-02-19 05:02:00,
2013-02-18 21:07:00,43.0,39.0,29.92,West,270,9.0,14.0,86,0.00,,,0.00,meteohub,2013-02-19 05:07:00,
2013-02-18 21:12:00,43.0,38.8,29.92,West,273,8.0,14.0,85,0.00,,,0.00,meteohub,2013-02-19 05:12:00,
2013-02-18 21:17:00,43.0,39.0,29.92,West,269,7.0,14.0,86,0.00,,,0.00,meteohub,2013-02-19 05:17:00,
2013-02-18 21:22:00,43.0,38.8,29.92,West,270,7.0,12.0,85,0.00,,,0.00,meteohub,2013-02-19 05:22:00,
2013-02-18 21:27:00,42.8,38.7,29.92,West,264,10.0,13.0,85,0.00,,,0.00,meteohub,2013-02-19 05:27:00,
2013-02-18 21:32:00,43.0,38.5,29.92,West,265,8.0,13.0,84,0.00,,,0.00,meteohub,2013-02-19 05:32:00,
2013-02-18 21:37:00,42.6,37.8,29.92,West,268,9.0,13.0,83,0.00,,,0.00,meteohub,2013-02-19 05:37:00,
2013-02-18 21:42:00,42.4,37.6,29.92,West,265,7.0,13.0,83,0.00,,,0.00,meteohub,2013-02-19 05:42:00,
2013-02-18 21:47:00,42.3,37.4,29.92,West,271,6.0,11.0,83,0.00,,,0.00,meteohub,2013-02-19 05:47:00,
2013-02-18 21:52:00,42.3,37.8,29.92,West,271,6.0,11.0,84,0.00,,,0.00,meteohub,2013-02-19 05:52:00,
2013-02-18 21:57:00,41.9,37.8,29.92,West,272,7.0,10.0,85,0.00,,,0.00,meteohub,2013-02-19 05:57:00,
2013-02-18 22:02:00,42.1,38.5,29.92,West,272,7.0,10.0,87,0.00,,,0.00,meteohub,2013-02-19 06:02:00,
2013-02-18 22:07:00,42.1,38.8,29.92,West,272,7.0,10.0,88,0.00,,,0.00,meteohub,2013-02-19 06:07:00,
2013-02-18 22:12:00,42.3,39.0,29.92,West,271,8.0,11.0,88,0.00,,,0.00,meteohub,2013-02-19 06:12:00,
2013-02-18 22:17:00,42.3,39.0,29.92,West,273,7.0,11.0,88,0.00,,,0.00,meteohub,2013-02-19 06:17:00,
2013-02-18 22:22:00,42.3,38.7,29.92,West,267,10.0,11.0,87,0.00,,,0.00,meteohub,2013-02-19 06:22:00,
2013-02-18 22:27:00,42.4,38.5,29.92,West,275,9.0,13.0,86,0.00,,,0.00,meteohub,2013-02-19 06:27:00,
2013-02-18 22:32:00,42.4,38.3,29.92,WNW,283,11.0,15.0,85,0.00,,,0.00,meteohub,2013-02-19 06:32:00,
2013-02-18 22:37:00,42.8,38.3,29.92,West,280,12.0,15.0,84,0.00,,,0.00,meteohub,2013-02-19 06:37:00,
2013-02-18 22:42:00,43.0,38.5,29.92,West,280,11.0,15.0,84,0.00,,,0.00,meteohub,2013-02-19 06:42:00,
2013-02-18 22:47:00,43.2,38.3,29.92,West,279,12.0,15.0,83,0.00,,,0.00,meteohub,2013-02-19 06:47:00,
2013-02-18 22:52:00,43.2,38.3,29.92,WNW,282,11.0,15.0,83,0.00,,,0.00,meteohub,2013-02-19 06:52:00,
2013-02-18 22:57:00,43.3,38.5,29.92,WNW,284,8.0,15.0,83,0.00,,,0.00,meteohub,2013-02-19 06:57:00,
2013-02-18 23:02:00,43.3,38.5,29.92,West,277,9.0,15.0,83,0.00,,,0.00,meteohub,2013-02-19 07:02:00,
2013-02-18 23:07:00,43.2,38.3,29.92,West,279,9.0,15.0,83,0.00,,,0.00,meteohub,2013-02-19 07:07:00,
2013-02-18 23:12:00,43.0,38.5,29.92,WNW,290,9.0,12.0,84,0.00,,,0.00,meteohub,2013-02-19 07:12:00,
2013-02-18 23:17:00,43.2,38.3,29.92,West,281,10.0,15.0,83,0.00,,,0.00,meteohub,2013-02-19 07:17:00,
2013-02-18 23:22:00,43.2,38.7,29.92,West,276,8.0,15.0,84,0.00,,,0.00,meteohub,2013-02-19 07:22:00,
2013-02-18 23:27:00,43.2,38.7,29.92,West,278,8.0,15.0,84,0.00,,,0.00,meteohub,2013-02-19 07:27:00,
2013-02-18 23:32:00,42.8,38.3,29.92,West,281,8.0,13.0,84,0.00,,,0.00,meteohub,2013-02-19 07:32:00,
2013-02-18 23:37:00,42.4,38.3,29.92,West,281,6.0,12.0,85,0.00,,,0.00,meteohub,2013-02-19 07:37:00,
2013-02-18 23:42:00,42.3,38.3,29.92,West,281,6.0,12.0,86,0.00,,,0.00,meteohub,2013-02-19 07:42:00,
2013-02-18 23:47:00,42.3,38.3,29.92,West,281,7.0,12.0,86,0.00,,,0.00,meteohub,2013-02-19 07:47:00,
2013-02-18 23:52:00,42.3,38.3,29.92,West,281,5.0,9.0,86,0.00,,,0.00,meteohub,2013-02-19 07:52:00,
2013-02-18 23:57:00,42.3,38.7,29.92,West,281,4.0,8.0,87,0.00,,,0.00,meteohub,2013-02-19 07:57:00,